sensor_id;sensor_type;location;lat;lon;timestamp;P1;durP1;ratioP1;P2;durP2;ratioP2
13706;SDS011;6925;47.816;13.072;2023-08-01T00:01:36;4.40;;;2.00;;
13706;SDS011;6925;47.816;13.072;2023-08-01T00:04:03;3.42;;;2.10;;
13706;SDS011;6925;47.816;13.072;2023-08-01T00:06:31;5.40;;;2.17;;
13706;SDS011;6925;47.816;13.072;2023-08-01T00:08:58;4.75;;;1.88;;
13706;SDS011;6925;47.816;13.072;2023-08-01T00:13:53;3.65;;;2.03;;
13706;SDS011;6925;47.816;13.072;2023-08-01T00:19:42;3.63;;;1.95;;
13706;SDS011;6925;47.816;13.072;2023-08-01T00:22:09;3.92;;;1.85;;
13706;SDS011;6925;47.816;13.072;2023-08-01T00:24:36;4.28;;;2.30;;
13706;SDS011;6925;47.816;13.072;2023-08-01T00:27:03;5.88;;;2.65;;
13706;SDS011;6925;47.816;13.072;2023-08-01T00:29:32;5.05;;;2.42;;
13706;SDS011;6925;47.816;13.072;2023-08-01T00:31:59;5.63;;;2.67;;
13706;SDS011;6925;47.816;13.072;2023-08-01T00:36:53;4.28;;;2.22;;
13706;SDS011;6925;47.816;13.072;2023-08-01T00:41:46;4.32;;;2.30;;
13706;SDS011;6925;47.816;13.072;2023-08-01T00:47:18;7.07;;;1.98;;
13706;SDS011;6925;47.816;13.072;2023-08-01T00:49:45;5.20;;;2.10;;
13706;SDS011;6925;47.816;13.072;2023-08-01T00:52:12;5.53;;;2.20;;
13706;SDS011;6925;47.816;13.072;2023-08-01T00:54:40;5.68;;;2.17;;
13706;SDS011;6925;47.816;13.072;2023-08-01T00:57:07;6.05;;;2.22;;
13706;SDS011;6925;47.816;13.072;2023-08-01T00:59:35;5.85;;;2.20;;
13706;SDS011;6925;47.816;13.072;2023-08-01T01:04:31;6.38;;;2.15;;
13706;SDS011;6925;47.816;13.072;2023-08-01T01:07:00;5.40;;;2.13;;
13706;SDS011;6925;47.816;13.072;2023-08-01T01:09:29;4.80;;;2.05;;
13706;SDS011;6925;47.816;13.072;2023-08-01T01:11:57;3.60;;;1.92;;
13706;SDS011;6925;47.816;13.072;2023-08-01T01:14:25;4.80;;;2.30;;
13706;SDS011;6925;47.816;13.072;2023-08-01T01:16:52;4.05;;;2.25;;
13706;SDS011;6925;47.816;13.072;2023-08-01T01:21:47;4.53;;;2.00;;
13706;SDS011;6925;47.816;13.072;2023-08-01T01:24:31;3.70;;;1.98;;
13706;SDS011;6925;47.816;13.072;2023-08-01T01:26:59;3.65;;;2.10;;
13706;SDS011;6925;47.816;13.072;2023-08-01T01:29:29;4.32;;;2.40;;
13706;SDS011;6925;47.816;13.072;2023-08-01T01:31:57;5.72;;;2.50;;
13706;SDS011;6925;47.816;13.072;2023-08-01T01:34:25;5.82;;;2.53;;
13706;SDS011;6925;47.816;13.072;2023-08-01T01:36:54;3.83;;;2.15;;
13706;SDS011;6925;47.816;13.072;2023-08-01T01:39:21;6.63;;;2.65;;
13706;SDS011;6925;47.816;13.072;2023-08-01T01:44:15;6.53;;;2.80;;
13706;SDS011;6925;47.816;13.072;2023-08-01T01:49:09;4.40;;;2.40;;
13706;SDS011;6925;47.816;13.072;2023-08-01T01:54:04;4.13;;;2.10;;
13706;SDS011;6925;47.816;13.072;2023-08-01T01:56:31;4.85;;;2.35;;
13706;SDS011;6925;47.816;13.072;2023-08-01T01:59:00;4.80;;;2.30;;
13706;SDS011;6925;47.816;13.072;2023-08-01T02:01:28;3.97;;;2.15;;
13706;SDS011;6925;47.816;13.072;2023-08-01T02:06:21;3.95;;;2.03;;
13706;SDS011;6925;47.816;13.072;2023-08-01T02:11:17;5.53;;;2.25;;
13706;SDS011;6925;47.816;13.072;2023-08-01T02:13:44;4.78;;;2.10;;
13706;SDS011;6925;47.816;13.072;2023-08-01T02:18:37;4.40;;;2.30;;
13706;SDS011;6925;47.816;13.072;2023-08-01T02:23:31;5.03;;;2.55;;
13706;SDS011;6925;47.816;13.072;2023-08-01T02:26:01;5.60;;;2.47;;
13706;SDS011;6925;47.816;13.072;2023-08-01T02:30:56;4.85;;;2.08;;
13706;SDS011;6925;47.816;13.072;2023-08-01T02:35:50;6.43;;;2.50;;
13706;SDS011;6925;47.816;13.072;2023-08-01T02:40:44;10.27;;;2.50;;
13706;SDS011;6925;47.816;13.072;2023-08-01T02:45:39;5.07;;;2.50;;
13706;SDS011;6925;47.816;13.072;2023-08-01T02:48:08;4.32;;;2.45;;
13706;SDS011;6925;47.816;13.072;2023-08-01T02:53:02;8.98;;;2.55;;
13706;SDS011;6925;47.816;13.072;2023-08-01T02:55:30;4.15;;;2.30;;
13706;SDS011;6925;47.816;13.072;2023-08-01T03:00:24;4.93;;;2.13;;
13706;SDS011;6925;47.816;13.072;2023-08-01T03:05:20;4.43;;;2.30;;
13706;SDS011;6925;47.816;13.072;2023-08-01T03:10:13;6.53;;;2.58;;
13706;SDS011;6925;47.816;13.072;2023-08-01T03:12:41;3.47;;;2.28;;
13706;SDS011;6925;47.816;13.072;2023-08-01T03:17:35;6.32;;;2.42;;
13706;SDS011;6925;47.816;13.072;2023-08-01T03:22:31;3.75;;;2.33;;
13706;SDS011;6925;47.816;13.072;2023-08-01T03:27:25;4.72;;;2.30;;
13706;SDS011;6925;47.816;13.072;2023-08-01T03:32:18;5.55;;;2.38;;
13706;SDS011;6925;47.816;13.072;2023-08-01T03:34:45;4.63;;;2.03;;
13706;SDS011;6925;47.816;13.072;2023-08-01T03:39:43;4.57;;;2.25;;
13706;SDS011;6925;47.816;13.072;2023-08-01T03:42:10;9.63;;;2.00;;
13706;SDS011;6925;47.816;13.072;2023-08-01T03:47:04;5.65;;;2.40;;
13706;SDS011;6925;47.816;13.072;2023-08-01T03:49:31;6.13;;;2.35;;
13706;SDS011;6925;47.816;13.072;2023-08-01T03:51:58;5.13;;;2.67;;
13706;SDS011;6925;47.816;13.072;2023-08-01T03:56:54;3.60;;;2.10;;
13706;SDS011;6925;47.816;13.072;2023-08-01T03:59:21;3.30;;;1.70;;
13706;SDS011;6925;47.816;13.072;2023-08-01T04:01:49;3.95;;;2.10;;
13706;SDS011;6925;47.816;13.072;2023-08-01T04:04:16;3.97;;;2.00;;
13706;SDS011;6925;47.816;13.072;2023-08-01T04:06:45;5.80;;;2.40;;
13706;SDS011;6925;47.816;13.072;2023-08-01T04:11:40;7.03;;;2.30;;
13706;SDS011;6925;47.816;13.072;2023-08-01T04:14:07;5.25;;;2.60;;
13706;SDS011;6925;47.816;13.072;2023-08-01T04:19:01;4.53;;;2.17;;
13706;SDS011;6925;47.816;13.072;2023-08-01T04:21:28;5.05;;;3.00;;
13706;SDS011;6925;47.816;13.072;2023-08-01T04:23:55;6.18;;;2.15;;
13706;SDS011;6925;47.816;13.072;2023-08-01T04:26:22;3.63;;;1.85;;
13706;SDS011;6925;47.816;13.072;2023-08-01T04:31:18;5.93;;;2.00;;
13706;SDS011;6925;47.816;13.072;2023-08-01T04:33:45;4.82;;;2.25;;
13706;SDS011;6925;47.816;13.072;2023-08-01T04:36:12;3.78;;;1.80;;
13706;SDS011;6925;47.816;13.072;2023-08-01T04:41:05;6.53;;;2.13;;
13706;SDS011;6925;47.816;13.072;2023-08-01T04:43:33;4.65;;;2.17;;
13706;SDS011;6925;47.816;13.072;2023-08-01T04:46:01;5.65;;;2.45;;
13706;SDS011;6925;47.816;13.072;2023-08-01T04:48:28;5.57;;;2.40;;
13706;SDS011;6925;47.816;13.072;2023-08-01T04:53:24;4.80;;;2.35;;
13706;SDS011;6925;47.816;13.072;2023-08-01T04:58:18;4.82;;;2.20;;
13706;SDS011;6925;47.816;13.072;2023-08-01T05:00:45;5.10;;;2.53;;
13706;SDS011;6925;47.816;13.072;2023-08-01T05:03:14;5.68;;;2.30;;
13706;SDS011;6925;47.816;13.072;2023-08-01T05:05:41;4.95;;;2.40;;
13706;SDS011;6925;47.816;13.072;2023-08-01T05:08:08;4.22;;;2.25;;
13706;SDS011;6925;47.816;13.072;2023-08-01T05:13:02;4.43;;;2.00;;
13706;SDS011;6925;47.816;13.072;2023-08-01T05:15:29;4.63;;;2.33;;
13706;SDS011;6925;47.816;13.072;2023-08-01T05:17:56;5.90;;;2.70;;
13706;SDS011;6925;47.816;13.072;2023-08-01T05:22:55;4.55;;;1.90;;
13706;SDS011;6925;47.816;13.072;2023-08-01T05:25:23;3.92;;;2.00;;
13706;SDS011;6925;47.816;13.072;2023-08-01T05:30:17;6.78;;;2.53;;
13706;SDS011;6925;47.816;13.072;2023-08-01T05:35:12;4.70;;;2.78;;
13706;SDS011;6925;47.816;13.072;2023-08-01T05:37:40;5.20;;;2.78;;
13706;SDS011;6925;47.816;13.072;2023-08-01T05:40:08;5.05;;;2.70;;
13706;SDS011;6925;47.816;13.072;2023-08-01T05:42:36;12.10;;;2.65;;
13706;SDS011;6925;47.816;13.072;2023-08-01T05:47:30;4.80;;;2.17;;
13706;SDS011;6925;47.816;13.072;2023-08-01T05:49:57;4.93;;;2.30;;
13706;SDS011;6925;47.816;13.072;2023-08-01T05:54:52;6.82;;;2.78;;
13706;SDS011;6925;47.816;13.072;2023-08-01T05:57:19;5.72;;;2.40;;
13706;SDS011;6925;47.816;13.072;2023-08-01T06:02:13;3.95;;;2.00;;
13706;SDS011;6925;47.816;13.072;2023-08-01T06:07:07;5.78;;;2.17;;
13706;SDS011;6925;47.816;13.072;2023-08-01T06:09:34;4.30;;;2.35;;
13706;SDS011;6925;47.816;13.072;2023-08-01T06:14:30;6.13;;;2.70;;
13706;SDS011;6925;47.816;13.072;2023-08-01T06:19:24;6.95;;;2.90;;
13706;SDS011;6925;47.816;13.072;2023-08-01T06:24:18;5.45;;;2.55;;
13706;SDS011;6925;47.816;13.072;2023-08-01T06:26:45;4.35;;;2.22;;
13706;SDS011;6925;47.816;13.072;2023-08-01T06:31:40;4.93;;;2.63;;
13706;SDS011;6925;47.816;13.072;2023-08-01T06:34:08;4.82;;;2.53;;
13706;SDS011;6925;47.816;13.072;2023-08-01T06:39:02;5.65;;;2.63;;
13706;SDS011;6925;47.816;13.072;2023-08-01T06:43:57;4.65;;;2.13;;
13706;SDS011;6925;47.816;13.072;2023-08-01T06:48:52;6.28;;;2.40;;
13706;SDS011;6925;47.816;13.072;2023-08-01T06:51:19;4.15;;;2.33;;
13706;SDS011;6925;47.816;13.072;2023-08-01T06:53:46;4.15;;;2.22;;
13706;SDS011;6925;47.816;13.072;2023-08-01T06:56:13;4.70;;;2.25;;
13706;SDS011;6925;47.816;13.072;2023-08-01T07:01:07;5.97;;;2.80;;
13706;SDS011;6925;47.816;13.072;2023-08-01T07:06:02;4.68;;;2.40;;
13706;SDS011;6925;47.816;13.072;2023-08-01T07:10:57;4.60;;;2.40;;
13706;SDS011;6925;47.816;13.072;2023-08-01T07:13:25;6.55;;;2.42;;
13706;SDS011;6925;47.816;13.072;2023-08-01T07:18:19;4.65;;;2.47;;
13706;SDS011;6925;47.816;13.072;2023-08-01T07:23:14;4.68;;;2.38;;
13706;SDS011;6925;47.816;13.072;2023-08-01T07:28:08;4.65;;;2.35;;
13706;SDS011;6925;47.816;13.072;2023-08-01T07:33:02;5.60;;;2.75;;
13706;SDS011;6925;47.816;13.072;2023-08-01T07:35:29;5.10;;;3.05;;
13706;SDS011;6925;47.816;13.072;2023-08-01T07:37:57;5.38;;;2.85;;
13706;SDS011;6925;47.816;13.072;2023-08-01T07:40:24;5.43;;;2.40;;
13706;SDS011;6925;47.816;13.072;2023-08-01T07:45:18;5.07;;;2.47;;
13706;SDS011;6925;47.816;13.072;2023-08-01T07:50:12;6.57;;;2.70;;
13706;SDS011;6925;47.816;13.072;2023-08-01T07:55:08;4.68;;;2.40;;
13706;SDS011;6925;47.816;13.072;2023-08-01T07:57:35;5.82;;;2.80;;
13706;SDS011;6925;47.816;13.072;2023-08-01T08:02:29;5.40;;;2.55;;
13706;SDS011;6925;47.816;13.072;2023-08-01T08:07:23;6.38;;;2.30;;
13706;SDS011;6925;47.816;13.072;2023-08-01T08:12:18;4.43;;;2.30;;
13706;SDS011;6925;47.816;13.072;2023-08-01T08:14:45;4.88;;;2.50;;
13706;SDS011;6925;47.816;13.072;2023-08-01T08:19:39;6.32;;;2.30;;
13706;SDS011;6925;47.816;13.072;2023-08-01T08:24:33;6.72;;;2.70;;
13706;SDS011;6925;47.816;13.072;2023-08-01T08:29:28;5.72;;;2.40;;
13706;SDS011;6925;47.816;13.072;2023-08-01T08:31:56;5.95;;;2.83;;
13706;SDS011;6925;47.816;13.072;2023-08-01T08:36:50;4.50;;;2.25;;
13706;SDS011;6925;47.816;13.072;2023-08-01T08:39:18;6.85;;;2.80;;
13706;SDS011;6925;47.816;13.072;2023-08-01T08:44:15;6.97;;;2.70;;
13706;SDS011;6925;47.816;13.072;2023-08-01T08:46:51;4.25;;;2.35;;
13706;SDS011;6925;47.816;13.072;2023-08-01T08:49:19;4.75;;;2.58;;
13706;SDS011;6925;47.816;13.072;2023-08-01T08:51:46;5.57;;;2.65;;
13706;SDS011;6925;47.816;13.072;2023-08-01T08:54:15;6.95;;;2.72;;
13706;SDS011;6925;47.816;13.072;2023-08-01T08:56:43;5.63;;;2.80;;
13706;SDS011;6925;47.816;13.072;2023-08-01T08:59:10;4.68;;;2.70;;
13706;SDS011;6925;47.816;13.072;2023-08-01T09:01:37;5.22;;;3.03;;
13706;SDS011;6925;47.816;13.072;2023-08-01T09:04:06;6.28;;;2.70;;
13706;SDS011;6925;47.816;13.072;2023-08-01T09:06:34;6.28;;;2.67;;
13706;SDS011;6925;47.816;13.072;2023-08-01T09:09:09;4.30;;;2.58;;
13706;SDS011;6925;47.816;13.072;2023-08-01T09:11:38;5.18;;;2.38;;
13706;SDS011;6925;47.816;13.072;2023-08-01T09:14:08;3.90;;;2.10;;
13706;SDS011;6925;47.816;13.072;2023-08-01T09:16:36;6.88;;;2.13;;
13706;SDS011;6925;47.816;13.072;2023-08-01T09:19:05;4.70;;;2.35;;
13706;SDS011;6925;47.816;13.072;2023-08-01T09:21:35;5.47;;;2.63;;
13706;SDS011;6925;47.816;13.072;2023-08-01T09:24:10;5.32;;;2.75;;
13706;SDS011;6925;47.816;13.072;2023-08-01T09:26:38;4.72;;;2.25;;
13706;SDS011;6925;47.816;13.072;2023-08-01T09:31:32;8.25;;;2.78;;
13706;SDS011;6925;47.816;13.072;2023-08-01T09:34:01;4.60;;;2.15;;
13706;SDS011;6925;47.816;13.072;2023-08-01T09:36:31;5.13;;;2.85;;
13706;SDS011;6925;47.816;13.072;2023-08-01T09:38:59;5.30;;;2.60;;
13706;SDS011;6925;47.816;13.072;2023-08-01T09:41:26;4.70;;;2.55;;
13706;SDS011;6925;47.816;13.072;2023-08-01T09:43:55;5.72;;;2.42;;
13706;SDS011;6925;47.816;13.072;2023-08-01T09:46:23;4.50;;;2.13;;
13706;SDS011;6925;47.816;13.072;2023-08-01T09:48:50;5.25;;;2.80;;
13706;SDS011;6925;47.816;13.072;2023-08-01T09:51:18;6.00;;;2.70;;
13706;SDS011;6925;47.816;13.072;2023-08-01T09:53:48;5.47;;;2.53;;
13706;SDS011;6925;47.816;13.072;2023-08-01T09:56:18;4.65;;;2.38;;
13706;SDS011;6925;47.816;13.072;2023-08-01T09:58:47;5.47;;;2.78;;
13706;SDS011;6925;47.816;13.072;2023-08-01T10:01:15;5.63;;;2.63;;
13706;SDS011;6925;47.816;13.072;2023-08-01T10:03:44;6.20;;;2.63;;
13706;SDS011;6925;47.816;13.072;2023-08-01T10:06:13;5.20;;;2.40;;
13706;SDS011;6925;47.816;13.072;2023-08-01T10:08:44;5.25;;;2.50;;
13706;SDS011;6925;47.816;13.072;2023-08-01T10:11:13;4.43;;;1.80;;
13706;SDS011;6925;47.816;13.072;2023-08-01T10:13:41;7.93;;;2.78;;
13706;SDS011;6925;47.816;13.072;2023-08-01T10:16:09;5.93;;;2.25;;
13706;SDS011;6925;47.816;13.072;2023-08-01T10:18:37;6.13;;;2.88;;
13706;SDS011;6925;47.816;13.072;2023-08-01T10:21:05;5.40;;;2.70;;
13706;SDS011;6925;47.816;13.072;2023-08-01T10:23:33;5.05;;;2.70;;
13706;SDS011;6925;47.816;13.072;2023-08-01T10:26:03;4.38;;;2.40;;
13706;SDS011;6925;47.816;13.072;2023-08-01T10:28:34;5.70;;;2.58;;
13706;SDS011;6925;47.816;13.072;2023-08-01T10:31:07;4.95;;;2.78;;
13706;SDS011;6925;47.816;13.072;2023-08-01T10:33:35;5.43;;;2.50;;
13706;SDS011;6925;47.816;13.072;2023-08-01T10:36:11;4.15;;;2.10;;
13706;SDS011;6925;47.816;13.072;2023-08-01T10:38:49;5.97;;;3.05;;
13706;SDS011;6925;47.816;13.072;2023-08-01T10:41:21;5.25;;;2.60;;
13706;SDS011;6925;47.816;13.072;2023-08-01T10:43:52;4.57;;;2.47;;
13706;SDS011;6925;47.816;13.072;2023-08-01T10:49:11;6.22;;;2.30;;
13706;SDS011;6925;47.816;13.072;2023-08-01T10:54:04;5.05;;;2.80;;
13706;SDS011;6925;47.816;13.072;2023-08-01T10:59:00;5.60;;;2.83;;
13706;SDS011;6925;47.816;13.072;2023-08-01T11:01:31;4.80;;;2.40;;
13706;SDS011;6925;47.816;13.072;2023-08-01T11:04:13;4.05;;;2.47;;
13706;SDS011;6925;47.816;13.072;2023-08-01T11:06:44;5.50;;;3.08;;
13706;SDS011;6925;47.816;13.072;2023-08-01T11:09:16;5.60;;;2.55;;
13706;SDS011;6925;47.816;13.072;2023-08-01T11:11:44;5.28;;;2.70;;
13706;SDS011;6925;47.816;13.072;2023-08-01T11:14:14;5.13;;;2.60;;
13706;SDS011;6925;47.816;13.072;2023-08-01T11:16:42;6.82;;;2.75;;
13706;SDS011;6925;47.816;13.072;2023-08-01T11:19:19;5.57;;;2.60;;
13706;SDS011;6925;47.816;13.072;2023-08-01T11:21:47;5.30;;;2.83;;
13706;SDS011;6925;47.816;13.072;2023-08-01T11:26:42;4.13;;;2.17;;
13706;SDS011;6925;47.816;13.072;2023-08-01T11:29:10;5.40;;;2.65;;
13706;SDS011;6925;47.816;13.072;2023-08-01T11:31:39;5.65;;;2.72;;
13706;SDS011;6925;47.816;13.072;2023-08-01T11:34:07;5.05;;;3.00;;
13706;SDS011;6925;47.816;13.072;2023-08-01T11:36:35;6.68;;;2.90;;
13706;SDS011;6925;47.816;13.072;2023-08-01T11:39:03;4.63;;;2.67;;
13706;SDS011;6925;47.816;13.072;2023-08-01T11:41:31;7.55;;;3.17;;
13706;SDS011;6925;47.816;13.072;2023-08-01T11:44:01;5.20;;;2.58;;
13706;SDS011;6925;47.816;13.072;2023-08-01T11:46:31;5.18;;;2.80;;
13706;SDS011;6925;47.816;13.072;2023-08-01T11:49:01;6.07;;;2.88;;
13706;SDS011;6925;47.816;13.072;2023-08-01T11:51:29;4.82;;;2.80;;
13706;SDS011;6925;47.816;13.072;2023-08-01T11:53:59;7.18;;;3.03;;
13706;SDS011;6925;47.816;13.072;2023-08-01T11:56:27;7.63;;;3.47;;
13706;SDS011;6925;47.816;13.072;2023-08-01T11:58:54;5.68;;;2.80;;
13706;SDS011;6925;47.816;13.072;2023-08-01T12:01:21;8.35;;;3.10;;
13706;SDS011;6925;47.816;13.072;2023-08-01T12:03:49;5.70;;;2.55;;
13706;SDS011;6925;47.816;13.072;2023-08-01T12:06:19;5.82;;;2.78;;
13706;SDS011;6925;47.816;13.072;2023-08-01T12:08:47;6.68;;;2.47;;
13706;SDS011;6925;47.816;13.072;2023-08-01T12:11:21;4.93;;;2.53;;
13706;SDS011;6925;47.816;13.072;2023-08-01T12:13:59;5.90;;;2.50;;
13706;SDS011;6925;47.816;13.072;2023-08-01T12:16:28;4.95;;;2.95;;
13706;SDS011;6925;47.816;13.072;2023-08-01T12:21:23;5.53;;;2.30;;
13706;SDS011;6925;47.816;13.072;2023-08-01T12:23:50;4.43;;;2.38;;
13706;SDS011;6925;47.816;13.072;2023-08-01T12:26:17;4.13;;;2.00;;
13706;SDS011;6925;47.816;13.072;2023-08-01T12:28:44;4.78;;;2.33;;
13706;SDS011;6925;47.816;13.072;2023-08-01T12:31:15;5.20;;;2.30;;
13706;SDS011;6925;47.816;13.072;2023-08-01T12:33:43;4.35;;;2.15;;
13706;SDS011;6925;47.816;13.072;2023-08-01T12:36:10;5.07;;;2.55;;
13706;SDS011;6925;47.816;13.072;2023-08-01T12:41:06;5.97;;;2.72;;
13706;SDS011;6925;47.816;13.072;2023-08-01T12:43:33;5.28;;;2.78;;
13706;SDS011;6925;47.816;13.072;2023-08-01T12:46:00;5.03;;;2.42;;
13706;SDS011;6925;47.816;13.072;2023-08-01T12:50:55;4.85;;;2.13;;
13706;SDS011;6925;47.816;13.072;2023-08-01T12:53:22;4.47;;;2.70;;
13706;SDS011;6925;47.816;13.072;2023-08-01T12:55:51;5.47;;;2.33;;
13706;SDS011;6925;47.816;13.072;2023-08-01T12:58:18;4.53;;;2.53;;
13706;SDS011;6925;47.816;13.072;2023-08-01T13:00:46;3.90;;;2.03;;
13706;SDS011;6925;47.816;13.072;2023-08-01T13:05:41;4.97;;;2.33;;
13706;SDS011;6925;47.816;13.072;2023-08-01T13:08:08;5.95;;;2.97;;
13706;SDS011;6925;47.816;13.072;2023-08-01T13:10:36;5.70;;;2.80;;
13706;SDS011;6925;47.816;13.072;2023-08-01T13:13:05;7.25;;;2.55;;
13706;SDS011;6925;47.816;13.072;2023-08-01T13:15:33;4.45;;;2.78;;
13706;SDS011;6925;47.816;13.072;2023-08-01T13:18:00;7.68;;;2.80;;
13706;SDS011;6925;47.816;13.072;2023-08-01T13:22:53;4.60;;;2.20;;
13706;SDS011;6925;47.816;13.072;2023-08-01T13:27:47;4.95;;;2.53;;
13706;SDS011;6925;47.816;13.072;2023-08-01T13:32:43;6.22;;;2.63;;
13706;SDS011;6925;47.816;13.072;2023-08-01T13:35:11;4.25;;;2.20;;
13706;SDS011;6925;47.816;13.072;2023-08-01T13:37:38;5.75;;;2.47;;
13706;SDS011;6925;47.816;13.072;2023-08-01T13:42:32;6.50;;;3.05;;
13706;SDS011;6925;47.816;13.072;2023-08-01T13:45:00;6.68;;;3.25;;
13706;SDS011;6925;47.816;13.072;2023-08-01T13:49:55;5.25;;;2.30;;
13706;SDS011;6925;47.816;13.072;2023-08-01T13:54:49;5.35;;;3.17;;
13706;SDS011;6925;47.816;13.072;2023-08-01T13:59:42;8.10;;;2.88;;
13706;SDS011;6925;47.816;13.072;2023-08-01T14:04:38;4.72;;;2.67;;
13706;SDS011;6925;47.816;13.072;2023-08-01T14:07:05;6.43;;;3.20;;
13706;SDS011;6925;47.816;13.072;2023-08-01T14:12:01;5.60;;;2.50;;
13706;SDS011;6925;47.816;13.072;2023-08-01T14:14:28;5.25;;;2.63;;
13706;SDS011;6925;47.816;13.072;2023-08-01T14:19:22;5.43;;;2.72;;
13706;SDS011;6925;47.816;13.072;2023-08-01T14:21:56;4.97;;;3.10;;
13706;SDS011;6925;47.816;13.072;2023-08-01T14:24:23;6.05;;;2.83;;
13706;SDS011;6925;47.816;13.072;2023-08-01T14:29:17;5.55;;;3.03;;
13706;SDS011;6925;47.816;13.072;2023-08-01T14:31:47;4.75;;;2.42;;
13706;SDS011;6925;47.816;13.072;2023-08-01T14:34:15;4.60;;;2.40;;
13706;SDS011;6925;47.816;13.072;2023-08-01T14:39:10;13.75;;;2.50;;
13706;SDS011;6925;47.816;13.072;2023-08-01T14:41:37;3.63;;;1.83;;
13706;SDS011;6925;47.816;13.072;2023-08-01T14:46:32;3.35;;;2.13;;
13706;SDS011;6925;47.816;13.072;2023-08-01T14:49:00;5.07;;;2.75;;
13706;SDS011;6925;47.816;13.072;2023-08-01T14:53:53;5.20;;;2.45;;
13706;SDS011;6925;47.816;13.072;2023-08-01T14:58:49;6.10;;;2.70;;
13706;SDS011;6925;47.816;13.072;2023-08-01T15:03:43;4.95;;;2.17;;
13706;SDS011;6925;47.816;13.072;2023-08-01T15:06:10;4.47;;;2.10;;
13706;SDS011;6925;47.816;13.072;2023-08-01T15:08:38;4.40;;;2.30;;
13706;SDS011;6925;47.816;13.072;2023-08-01T15:11:05;4.00;;;2.13;;
13706;SDS011;6925;47.816;13.072;2023-08-01T15:13:34;5.10;;;2.33;;
13706;SDS011;6925;47.816;13.072;2023-08-01T15:16:01;4.97;;;2.17;;
13706;SDS011;6925;47.816;13.072;2023-08-01T15:18:29;3.88;;;1.98;;
13706;SDS011;6925;47.816;13.072;2023-08-01T15:23:22;3.95;;;2.03;;
13706;SDS011;6925;47.816;13.072;2023-08-01T15:25:53;3.80;;;2.03;;
13706;SDS011;6925;47.816;13.072;2023-08-01T15:28:21;4.10;;;2.25;;
13706;SDS011;6925;47.816;13.072;2023-08-01T15:30:49;4.45;;;2.33;;
13706;SDS011;6925;47.816;13.072;2023-08-01T15:33:27;4.43;;;2.30;;
13706;SDS011;6925;47.816;13.072;2023-08-01T15:38:25;5.43;;;2.10;;
13706;SDS011;6925;47.816;13.072;2023-08-01T15:43:19;6.25;;;2.78;;
13706;SDS011;6925;47.816;13.072;2023-08-01T15:45:46;3.70;;;2.40;;
13706;SDS011;6925;47.816;13.072;2023-08-01T15:50:41;5.10;;;2.33;;
13706;SDS011;6925;47.816;13.072;2023-08-01T15:53:10;4.93;;;2.28;;
13706;SDS011;6925;47.816;13.072;2023-08-01T15:55:37;4.75;;;2.00;;
13706;SDS011;6925;47.816;13.072;2023-08-01T16:00:31;3.72;;;2.00;;
13706;SDS011;6925;47.816;13.072;2023-08-01T16:02:59;3.67;;;1.83;;
13706;SDS011;6925;47.816;13.072;2023-08-01T16:05:30;3.03;;;1.77;;
13706;SDS011;6925;47.816;13.072;2023-08-01T16:07:59;3.33;;;1.55;;
13706;SDS011;6925;47.816;13.072;2023-08-01T16:10:26;2.80;;;1.20;;
13706;SDS011;6925;47.816;13.072;2023-08-01T16:15:20;2.95;;;1.40;;
13706;SDS011;6925;47.816;13.072;2023-08-01T16:17:47;2.35;;;1.40;;
13706;SDS011;6925;47.816;13.072;2023-08-01T16:20:15;2.28;;;1.15;;
13706;SDS011;6925;47.816;13.072;2023-08-01T16:22:43;2.80;;;1.40;;
13706;SDS011;6925;47.816;13.072;2023-08-01T16:25:11;2.63;;;1.23;;
13706;SDS011;6925;47.816;13.072;2023-08-01T16:27:38;2.15;;;1.02;;
13706;SDS011;6925;47.816;13.072;2023-08-01T16:32:33;2.88;;;1.38;;
13706;SDS011;6925;47.816;13.072;2023-08-01T16:35:01;3.05;;;1.15;;
13706;SDS011;6925;47.816;13.072;2023-08-01T16:37:28;2.50;;;1.20;;
13706;SDS011;6925;47.816;13.072;2023-08-01T16:39:56;2.88;;;1.30;;
13706;SDS011;6925;47.816;13.072;2023-08-01T16:42:23;2.22;;;0.98;;
13706;SDS011;6925;47.816;13.072;2023-08-01T16:44:51;3.53;;;1.33;;
13706;SDS011;6925;47.816;13.072;2023-08-01T16:47:18;3.47;;;1.20;;
13706;SDS011;6925;47.816;13.072;2023-08-01T16:49:46;4.72;;;1.60;;
13706;SDS011;6925;47.816;13.072;2023-08-01T16:52:14;2.38;;;1.20;;
13706;SDS011;6925;47.816;13.072;2023-08-01T16:54:41;4.78;;;1.52;;
13706;SDS011;6925;47.816;13.072;2023-08-01T16:59:37;3.88;;;1.42;;
13706;SDS011;6925;47.816;13.072;2023-08-01T17:02:04;3.42;;;1.40;;
13706;SDS011;6925;47.816;13.072;2023-08-01T17:04:33;3.15;;;1.45;;
13706;SDS011;6925;47.816;13.072;2023-08-01T17:07:00;2.72;;;1.23;;
13706;SDS011;6925;47.816;13.072;2023-08-01T17:09:27;3.72;;;1.40;;
13706;SDS011;6925;47.816;13.072;2023-08-01T17:11:56;2.20;;;1.10;;
13706;SDS011;6925;47.816;13.072;2023-08-01T17:14:25;2.90;;;1.20;;
13706;SDS011;6925;47.816;13.072;2023-08-01T17:16:54;2.70;;;1.20;;
13706;SDS011;6925;47.816;13.072;2023-08-01T17:19:21;2.40;;;1.20;;
13706;SDS011;6925;47.816;13.072;2023-08-01T17:21:48;2.75;;;1.20;;
13706;SDS011;6925;47.816;13.072;2023-08-01T17:24:15;3.38;;;1.67;;
13706;SDS011;6925;47.816;13.072;2023-08-01T17:29:09;2.78;;;1.50;;
13706;SDS011;6925;47.816;13.072;2023-08-01T17:31:39;3.00;;;1.50;;
13706;SDS011;6925;47.816;13.072;2023-08-01T17:34:06;2.80;;;1.23;;
13706;SDS011;6925;47.816;13.072;2023-08-01T17:36:34;2.28;;;1.02;;
13706;SDS011;6925;47.816;13.072;2023-08-01T17:39:02;2.30;;;1.10;;
13706;SDS011;6925;47.816;13.072;2023-08-01T17:41:30;2.58;;;1.27;;
13706;SDS011;6925;47.816;13.072;2023-08-01T17:43:57;2.33;;;1.05;;
13706;SDS011;6925;47.816;13.072;2023-08-01T17:46:25;2.13;;;0.85;;
13706;SDS011;6925;47.816;13.072;2023-08-01T17:48:54;2.55;;;1.13;;
13706;SDS011;6925;47.816;13.072;2023-08-01T17:51:21;2.30;;;1.10;;
13706;SDS011;6925;47.816;13.072;2023-08-01T17:53:48;1.33;;;0.70;;
13706;SDS011;6925;47.816;13.072;2023-08-01T17:56:16;2.00;;;0.90;;
13706;SDS011;6925;47.816;13.072;2023-08-01T17:58:43;2.35;;;1.10;;
13706;SDS011;6925;47.816;13.072;2023-08-01T18:01:11;2.58;;;0.82;;
13706;SDS011;6925;47.816;13.072;2023-08-01T18:03:38;2.50;;;1.30;;
13706;SDS011;6925;47.816;13.072;2023-08-01T18:08:34;2.92;;;1.20;;
13706;SDS011;6925;47.816;13.072;2023-08-01T18:11:01;3.22;;;1.17;;
13706;SDS011;6925;47.816;13.072;2023-08-01T18:13:35;2.80;;;1.02;;
13706;SDS011;6925;47.816;13.072;2023-08-01T18:16:02;2.78;;;1.40;;
13706;SDS011;6925;47.816;13.072;2023-08-01T18:18:30;1.77;;;0.90;;
13706;SDS011;6925;47.816;13.072;2023-08-01T18:20:59;3.85;;;1.30;;
13706;SDS011;6925;47.816;13.072;2023-08-01T18:23:29;3.45;;;1.40;;
13706;SDS011;6925;47.816;13.072;2023-08-01T18:25:56;3.50;;;1.35;;
13706;SDS011;6925;47.816;13.072;2023-08-01T18:28:24;2.50;;;1.20;;
13706;SDS011;6925;47.816;13.072;2023-08-01T18:33:17;2.20;;;1.00;;
13706;SDS011;6925;47.816;13.072;2023-08-01T18:35:45;2.97;;;1.38;;
13706;SDS011;6925;47.816;13.072;2023-08-01T18:40:40;3.00;;;1.70;;
13706;SDS011;6925;47.816;13.072;2023-08-01T18:43:09;5.15;;;1.38;;
13706;SDS011;6925;47.816;13.072;2023-08-01T18:45:36;2.90;;;1.40;;
13706;SDS011;6925;47.816;13.072;2023-08-01T18:50:30;6.80;;;1.95;;
13706;SDS011;6925;47.816;13.072;2023-08-01T18:52:59;2.95;;;1.52;;
13706;SDS011;6925;47.816;13.072;2023-08-01T18:55:26;2.63;;;0.90;;
13706;SDS011;6925;47.816;13.072;2023-08-01T18:57:54;4.18;;;1.08;;
13706;SDS011;6925;47.816;13.072;2023-08-01T19:00:24;1.98;;;1.00;;
13706;SDS011;6925;47.816;13.072;2023-08-01T19:02:51;2.20;;;0.98;;
13706;SDS011;6925;47.816;13.072;2023-08-01T19:05:18;2.17;;;0.88;;
13706;SDS011;6925;47.816;13.072;2023-08-01T19:07:47;2.75;;;0.90;;
13706;SDS011;6925;47.816;13.072;2023-08-01T19:12:42;1.77;;;0.90;;
13706;SDS011;6925;47.816;13.072;2023-08-01T19:15:11;2.47;;;1.10;;
13706;SDS011;6925;47.816;13.072;2023-08-01T19:17:38;4.95;;;1.40;;